sensor_id;sensor_type;location;lat;lon;timestamp;temperature;humidity
25732;DHT22;13585;50.864;4.406;2023-01-26T00:01:54;14.70;59.10
25732;DHT22;13585;50.864;4.406;2023-01-26T00:04:20;14.80;59.20
25732;DHT22;13585;50.864;4.406;2023-01-26T00:06:46;14.70;59.10
25732;DHT22;13585;50.864;4.406;2023-01-26T00:09:12;14.70;59.10
25732;DHT22;13585;50.864;4.406;2023-01-26T00:11:41;14.70;59.10
25732;DHT22;13585;50.864;4.406;2023-01-26T00:14:07;14.70;59.10
25732;DHT22;13585;50.864;4.406;2023-01-26T00:16:32;14.80;59.20
25732;DHT22;13585;50.864;4.406;2023-01-26T00:19:15;14.70;59.10
25732;DHT22;13585;50.864;4.406;2023-01-26T00:21:44;14.70;59.10
25732;DHT22;13585;50.864;4.406;2023-01-26T00:24:12;14.70;59.00
25732;DHT22;13585;50.864;4.406;2023-01-26T00:30:12;14.70;59.00
25732;DHT22;13585;50.864;4.406;2023-01-26T00:33:01;14.70;59.00
25732;DHT22;13585;50.864;4.406;2023-01-26T00:35:38;14.70;59.00
25732;DHT22;13585;50.864;4.406;2023-01-26T00:38:12;14.70;59.00
25732;DHT22;13585;50.864;4.406;2023-01-26T00:40:39;14.70;58.90
25732;DHT22;13585;50.864;4.406;2023-01-26T00:43:05;14.70;59.00
25732;DHT22;13585;50.864;4.406;2023-01-26T00:45:34;14.70;59.00
25732;DHT22;13585;50.864;4.406;2023-01-26T00:48:00;14.70;59.00
25732;DHT22;13585;50.864;4.406;2023-01-26T00:50:26;14.70;58.90
25732;DHT22;13585;50.864;4.406;2023-01-26T00:52:51;14.70;58.90
25732;DHT22;13585;50.864;4.406;2023-01-26T00:55:18;14.70;59.50
25732;DHT22;13585;50.864;4.406;2023-01-26T00:57:44;14.60;58.80
25732;DHT22;13585;50.864;4.406;2023-01-26T01:00:10;14.70;58.90
25732;DHT22;13585;50.864;4.406;2023-01-26T01:02:41;14.70;58.80
25732;DHT22;13585;50.864;4.406;2023-01-26T01:05:07;14.60;58.80
25732;DHT22;13585;50.864;4.406;2023-01-26T01:07:33;14.70;58.90
25732;DHT22;13585;50.864;4.406;2023-01-26T01:09:58;14.60;58.70
25732;DHT22;13585;50.864;4.406;2023-01-26T01:12:25;14.60;58.70
25732;DHT22;13585;50.864;4.406;2023-01-26T01:14:51;14.70;58.70
25732;DHT22;13585;50.864;4.406;2023-01-26T01:17:16;14.70;58.70
25732;DHT22;13585;50.864;4.406;2023-01-26T01:19:42;14.70;58.70
25732;DHT22;13585;50.864;4.406;2023-01-26T01:22:08;14.60;58.60
25732;DHT22;13585;50.864;4.406;2023-01-26T01:24:33;14.70;58.70
25732;DHT22;13585;50.864;4.406;2023-01-26T01:27:00;14.60;58.60
25732;DHT22;13585;50.864;4.406;2023-01-26T01:29:26;14.60;58.60
25732;DHT22;13585;50.864;4.406;2023-01-26T01:31:51;14.60;58.60
25732;DHT22;13585;50.864;4.406;2023-01-26T01:34:17;14.60;58.60
25732;DHT22;13585;50.864;4.406;2023-01-26T01:36:42;14.60;58.00
25732;DHT22;13585;50.864;4.406;2023-01-26T01:39:08;14.70;58.60
25732;DHT22;13585;50.864;4.406;2023-01-26T01:41:33;14.60;58.60
25732;DHT22;13585;50.864;4.406;2023-01-26T01:44:16;14.60;58.50
25732;DHT22;13585;50.864;4.406;2023-01-26T01:47:02;14.60;58.50
25732;DHT22;13585;50.864;4.406;2023-01-26T01:49:40;14.60;58.50
25732;DHT22;13585;50.864;4.406;2023-01-26T01:52:13;14.60;58.40
25732;DHT22;13585;50.864;4.406;2023-01-26T01:54:59;14.60;58.50
25732;DHT22;13585;50.864;4.406;2023-01-26T01:57:31;14.60;58.50
25732;DHT22;13585;50.864;4.406;2023-01-26T02:00:11;14.60;58.50
25732;DHT22;13585;50.864;4.406;2023-01-26T02:02:37;14.60;58.50
25732;DHT22;13585;50.864;4.406;2023-01-26T02:05:12;14.60;58.40
25732;DHT22;13585;50.864;4.406;2023-01-26T02:07:42;14.60;58.50
25732;DHT22;13585;50.864;4.406;2023-01-26T02:10:08;14.60;58.40
25732;DHT22;13585;50.864;4.406;2023-01-26T02:12:45;14.60;58.40
25732;DHT22;13585;50.864;4.406;2023-01-26T02:15:12;14.60;58.40
25732;DHT22;13585;50.864;4.406;2023-01-26T02:17:38;14.60;58.30
25732;DHT22;13585;50.864;4.406;2023-01-26T02:28:09;14.60;58.30
25732;DHT22;13585;50.864;4.406;2023-01-26T02:30:35;14.60;58.30
25732;DHT22;13585;50.864;4.406;2023-01-26T02:33:00;14.60;58.30
25732;DHT22;13585;50.864;4.406;2023-01-26T02:35:26;14.60;58.30
25732;DHT22;13585;50.864;4.406;2023-01-26T02:37:52;14.50;58.20
25732;DHT22;13585;50.864;4.406;2023-01-26T02:40:24;14.50;58.20
25732;DHT22;13585;50.864;4.406;2023-01-26T02:42:54;14.50;58.20
25732;DHT22;13585;50.864;4.406;2023-01-26T02:45:21;14.50;58.20
25732;DHT22;13585;50.864;4.406;2023-01-26T02:47:46;14.50;58.20
25732;DHT22;13585;50.864;4.406;2023-01-26T02:50:12;14.50;58.20
25732;DHT22;13585;50.864;4.406;2023-01-26T02:52:38;14.50;58.10
25732;DHT22;13585;50.864;4.406;2023-01-26T02:55:05;14.50;58.10
25732;DHT22;13585;50.864;4.406;2023-01-26T02:57:52;14.50;58.10
25732;DHT22;13585;50.864;4.406;2023-01-26T03:00:20;14.50;58.10
25732;DHT22;13585;50.864;4.406;2023-01-26T03:02:48;14.50;58.10
25732;DHT22;13585;50.864;4.406;2023-01-26T03:05:15;14.50;58.10
25732;DHT22;13585;50.864;4.406;2023-01-26T03:07:41;14.50;58.10
25732;DHT22;13585;50.864;4.406;2023-01-26T03:10:07;14.50;58.00
25732;DHT22;13585;50.864;4.406;2023-01-26T03:12:33;14.50;58.10
25732;DHT22;13585;50.864;4.406;2023-01-26T03:14:59;14.50;58.00
25732;DHT22;13585;50.864;4.406;2023-01-26T03:17:43;14.50;58.00
25732;DHT22;13585;50.864;4.406;2023-01-26T03:20:09;14.50;58.00
25732;DHT22;13585;50.864;4.406;2023-01-26T03:22:54;14.50;58.00
25732;DHT22;13585;50.864;4.406;2023-01-26T03:25:38;14.50;58.00
25732;DHT22;13585;50.864;4.406;2023-01-26T03:28:23;14.50;58.00
25732;DHT22;13585;50.864;4.406;2023-01-26T03:30:50;14.50;58.00
25732;DHT22;13585;50.864;4.406;2023-01-26T03:33:16;14.50;58.00
25732;DHT22;13585;50.864;4.406;2023-01-26T03:35:42;14.50;58.00
25732;DHT22;13585;50.864;4.406;2023-01-26T03:38:08;14.50;58.00
25732;DHT22;13585;50.864;4.406;2023-01-26T03:40:34;14.50;58.00
25732;DHT22;13585;50.864;4.406;2023-01-26T03:43:18;14.50;58.00
25732;DHT22;13585;50.864;4.406;2023-01-26T03:46:03;14.50;57.90
25732;DHT22;13585;50.864;4.406;2023-01-26T03:48:47;14.50;57.90
25732;DHT22;13585;50.864;4.406;2023-01-26T03:51:31;14.50;57.90
25732;DHT22;13585;50.864;4.406;2023-01-26T03:54:16;14.50;57.90
25732;DHT22;13585;50.864;4.406;2023-01-26T03:56:59;14.50;57.90
25732;DHT22;13585;50.864;4.406;2023-01-26T03:59:25;14.50;57.90
25732;DHT22;13585;50.864;4.406;2023-01-26T04:02:05;14.40;57.80
25732;DHT22;13585;50.864;4.406;2023-01-26T04:04:49;14.50;57.90
25732;DHT22;13585;50.864;4.406;2023-01-26T04:07:34;14.40;57.80
25732;DHT22;13585;50.864;4.406;2023-01-26T04:10:18;14.40;57.80
25732;DHT22;13585;50.864;4.406;2023-01-26T04:12:44;14.50;57.90
25732;DHT22;13585;50.864;4.406;2023-01-26T04:15:09;14.40;57.80
25732;DHT22;13585;50.864;4.406;2023-01-26T04:17:54;14.50;57.90
25732;DHT22;13585;50.864;4.406;2023-01-26T04:20:38;14.40;57.80
25732;DHT22;13585;50.864;4.406;2023-01-26T04:23:22;14.40;57.80
25732;DHT22;13585;50.864;4.406;2023-01-26T04:25:48;14.40;57.70
25732;DHT22;13585;50.864;4.406;2023-01-26T04:28:13;14.40;57.80
25732;DHT22;13585;50.864;4.406;2023-01-26T04:30:39;14.40;57.80
25732;DHT22;13585;50.864;4.406;2023-01-26T04:33:04;14.40;57.70
25732;DHT22;13585;50.864;4.406;2023-01-26T04:35:30;14.50;57.80
25732;DHT22;13585;50.864;4.406;2023-01-26T04:37:56;14.40;57.80
25732;DHT22;13585;50.864;4.406;2023-01-26T04:40:22;14.40;57.70
25732;DHT22;13585;50.864;4.406;2023-01-26T04:42:47;14.40;57.70
25732;DHT22;13585;50.864;4.406;2023-01-26T04:45:13;14.40;57.70
25732;DHT22;13585;50.864;4.406;2023-01-26T04:47:38;14.40;57.70
25732;DHT22;13585;50.864;4.406;2023-01-26T04:50:04;14.40;57.60
25732;DHT22;13585;50.864;4.406;2023-01-26T04:52:30;14.40;57.60
25732;DHT22;13585;50.864;4.406;2023-01-26T04:54:55;14.40;57.70
25732;DHT22;13585;50.864;4.406;2023-01-26T04:57:21;14.40;57.60
25732;DHT22;13585;50.864;4.406;2023-01-26T04:59:49;14.40;57.60
25732;DHT22;13585;50.864;4.406;2023-01-26T05:02:14;14.40;57.60
25732;DHT22;13585;50.864;4.406;2023-01-26T05:04:40;14.40;57.70
25732;DHT22;13585;50.864;4.406;2023-01-26T05:07:05;14.40;57.60
25732;DHT22;13585;50.864;4.406;2023-01-26T05:09:31;14.40;57.60
25732;DHT22;13585;50.864;4.406;2023-01-26T05:11:57;14.40;57.60
25732;DHT22;13585;50.864;4.406;2023-01-26T05:14:42;14.40;57.60
25732;DHT22;13585;50.864;4.406;2023-01-26T05:17:08;14.40;57.60
25732;DHT22;13585;50.864;4.406;2023-01-26T05:19:33;14.40;57.50
25732;DHT22;13585;50.864;4.406;2023-01-26T05:21:59;14.40;57.50
25732;DHT22;13585;50.864;4.406;2023-01-26T05:24:24;14.40;57.50
25732;DHT22;13585;50.864;4.406;2023-01-26T05:26:50;14.40;57.50
25732;DHT22;13585;50.864;4.406;2023-01-26T05:29:36;14.40;57.60
25732;DHT22;13585;50.864;4.406;2023-01-26T05:32:01;14.40;57.60
25732;DHT22;13585;50.864;4.406;2023-01-26T05:34:27;14.40;57.50
25732;DHT22;13585;50.864;4.406;2023-01-26T05:36:52;14.40;57.50
25732;DHT22;13585;50.864;4.406;2023-01-26T05:39:18;14.40;57.50
25732;DHT22;13585;50.864;4.406;2023-01-26T05:41:43;14.40;57.50
25732;DHT22;13585;50.864;4.406;2023-01-26T05:44:09;14.40;57.40
25732;DHT22;13585;50.864;4.406;2023-01-26T05:46:35;14.40;57.40
25732;DHT22;13585;50.864;4.406;2023-01-26T05:49:00;14.40;57.40
25732;DHT22;13585;50.864;4.406;2023-01-26T05:51:26;14.40;57.30
25732;DHT22;13585;50.864;4.406;2023-01-26T05:53:51;14.40;57.30
25732;DHT22;13585;50.864;4.406;2023-01-26T05:56:17;14.40;57.30
25732;DHT22;13585;50.864;4.406;2023-01-26T05:58:42;14.40;57.30
25732;DHT22;13585;50.864;4.406;2023-01-26T06:01:08;14.40;57.30
25732;DHT22;13585;50.864;4.406;2023-01-26T06:03:34;14.40;57.30
25732;DHT22;13585;50.864;4.406;2023-01-26T06:05:59;14.40;57.30
25732;DHT22;13585;50.864;4.406;2023-01-26T06:08:25;14.50;57.40
25732;DHT22;13585;50.864;4.406;2023-01-26T06:10:50;14.50;57.40
25732;DHT22;13585;50.864;4.406;2023-01-26T06:13:16;14.50;57.40
25732;DHT22;13585;50.864;4.406;2023-01-26T06:15:42;14.50;57.40
25732;DHT22;13585;50.864;4.406;2023-01-26T06:18:07;14.50;57.40
25732;DHT22;13585;50.864;4.406;2023-01-26T06:20:33;14.50;57.40
25732;DHT22;13585;50.864;4.406;2023-01-26T06:22:59;14.50;57.40
25732;DHT22;13585;50.864;4.406;2023-01-26T06:25:25;14.50;57.40
25732;DHT22;13585;50.864;4.406;2023-01-26T06:27:56;14.50;57.40
25732;DHT22;13585;50.864;4.406;2023-01-26T06:30:22;14.50;57.50
25732;DHT22;13585;50.864;4.406;2023-01-26T06:32:48;14.50;57.40
25732;DHT22;13585;50.864;4.406;2023-01-26T06:35:13;14.60;57.50
25732;DHT22;13585;50.864;4.406;2023-01-26T06:37:39;14.50;57.50
25732;DHT22;13585;50.864;4.406;2023-01-26T06:40:05;14.60;57.60
25732;DHT22;13585;50.864;4.406;2023-01-26T06:42:31;14.60;57.60
25732;DHT22;13585;50.864;4.406;2023-01-26T06:44:59;14.60;57.60
25732;DHT22;13585;50.864;4.406;2023-01-26T06:47:25;14.60;57.60
25732;DHT22;13585;50.864;4.406;2023-01-26T06:49:50;14.60;57.60
25732;DHT22;13585;50.864;4.406;2023-01-26T06:52:34;14.60;57.70
25732;DHT22;13585;50.864;4.406;2023-01-26T06:55:00;14.60;57.70
25732;DHT22;13585;50.864;4.406;2023-01-26T06:57:27;14.60;57.60
25732;DHT22;13585;50.864;4.406;2023-01-26T06:59:52;14.60;57.70
25732;DHT22;13585;50.864;4.406;2023-01-26T07:02:20;14.60;57.70
25732;DHT22;13585;50.864;4.406;2023-01-26T07:04:47;14.60;57.70
25732;DHT22;13585;50.864;4.406;2023-01-26T07:07:12;14.60;57.80
25732;DHT22;13585;50.864;4.406;2023-01-26T07:09:38;14.60;57.70
25732;DHT22;13585;50.864;4.406;2023-01-26T07:12:04;14.60;57.80
25732;DHT22;13585;50.864;4.406;2023-01-26T07:14:31;14.70;58.00
25732;DHT22;13585;50.864;4.406;2023-01-26T07:16:57;14.70;58.10
25732;DHT22;13585;50.864;4.406;2023-01-26T07:19:22;14.70;58.10
25732;DHT22;13585;50.864;4.406;2023-01-26T07:21:48;14.70;58.20
25732;DHT22;13585;50.864;4.406;2023-01-26T07:24:14;14.70;58.30
25732;DHT22;13585;50.864;4.406;2023-01-26T07:26:39;14.70;58.30
25732;DHT22;13585;50.864;4.406;2023-01-26T07:29:05;14.70;58.30
25732;DHT22;13585;50.864;4.406;2023-01-26T07:31:30;14.70;58.40
25732;DHT22;13585;50.864;4.406;2023-01-26T07:33:56;14.80;58.50
25732;DHT22;13585;50.864;4.406;2023-01-26T07:36:22;14.80;58.50
25732;DHT22;13585;50.864;4.406;2023-01-26T07:38:47;14.80;58.60
25732;DHT22;13585;50.864;4.406;2023-01-26T07:41:13;14.80;58.60
25732;DHT22;13585;50.864;4.406;2023-01-26T07:43:39;14.80;58.70
25732;DHT22;13585;50.864;4.406;2023-01-26T07:46:06;14.80;58.70
25732;DHT22;13585;50.864;4.406;2023-01-26T07:48:33;14.90;58.80
25732;DHT22;13585;50.864;4.406;2023-01-26T07:51:00;14.90;58.80
25732;DHT22;13585;50.864;4.406;2023-01-26T07:53:27;14.90;58.90
25732;DHT22;13585;50.864;4.406;2023-01-26T07:56:11;14.90;58.90
25732;DHT22;13585;50.864;4.406;2023-01-26T07:58:38;14.90;58.90
25732;DHT22;13585;50.864;4.406;2023-01-26T08:03:30;14.90;58.90
25732;DHT22;13585;50.864;4.406;2023-01-26T08:05:56;14.90;59.00
25732;DHT22;13585;50.864;4.406;2023-01-26T08:08:21;14.90;59.00
25732;DHT22;13585;50.864;4.406;2023-01-26T08:10:47;15.00;59.00
25732;DHT22;13585;50.864;4.406;2023-01-26T08:13:12;15.00;59.00
25732;DHT22;13585;50.864;4.406;2023-01-26T08:15:38;15.00;59.10
25732;DHT22;13585;50.864;4.406;2023-01-26T08:18:03;15.00;59.00
25732;DHT22;13585;50.864;4.406;2023-01-26T08:20:30;15.00;59.10
25732;DHT22;13585;50.864;4.406;2023-01-26T08:22:55;15.00;59.10
25732;DHT22;13585;50.864;4.406;2023-01-26T08:25:21;15.00;59.10
25732;DHT22;13585;50.864;4.406;2023-01-26T08:27:47;15.00;59.10
25732;DHT22;13585;50.864;4.406;2023-01-26T08:30:13;15.00;59.10
25732;DHT22;13585;50.864;4.406;2023-01-26T08:32:40;15.00;59.10
25732;DHT22;13585;50.864;4.406;2023-01-26T08:35:06;15.00;59.10
25732;DHT22;13585;50.864;4.406;2023-01-26T08:37:32;15.00;59.10
25732;DHT22;13585;50.864;4.406;2023-01-26T08:39:58;15.00;59.10
25732;DHT22;13585;50.864;4.406;2023-01-26T08:42:23;15.00;59.10
25732;DHT22;13585;50.864;4.406;2023-01-26T08:44:50;15.00;59.10
25732;DHT22;13585;50.864;4.406;2023-01-26T08:47:16;15.00;59.20
25732;DHT22;13585;50.864;4.406;2023-01-26T08:49:42;15.00;59.10
25732;DHT22;13585;50.864;4.406;2023-01-26T08:52:08;15.00;59.10
25732;DHT22;13585;50.864;4.406;2023-01-26T08:54:33;15.00;59.10
25732;DHT22;13585;50.864;4.406;2023-01-26T08:56:59;15.00;59.10
25732;DHT22;13585;50.864;4.406;2023-01-26T08:59:24;15.00;59.10
25732;DHT22;13585;50.864;4.406;2023-01-26T09:01:50;15.00;59.10
25732;DHT22;13585;50.864;4.406;2023-01-26T09:04:16;15.00;59.10
25732;DHT22;13585;50.864;4.406;2023-01-26T09:06:41;15.00;59.10
25732;DHT22;13585;50.864;4.406;2023-01-26T09:09:07;15.00;59.10
25732;DHT22;13585;50.864;4.406;2023-01-26T09:11:38;15.00;59.10
25732;DHT22;13585;50.864;4.406;2023-01-26T09:14:03;14.90;59.00
25732;DHT22;13585;50.864;4.406;2023-01-26T09:16:29;15.00;59.00
25732;DHT22;13585;50.864;4.406;2023-01-26T09:18:54;14.90;59.00
25732;DHT22;13585;50.864;4.406;2023-01-26T09:21:20;14.90;59.00
25732;DHT22;13585;50.864;4.406;2023-01-26T09:23:48;14.90;59.00
25732;DHT22;13585;50.864;4.406;2023-01-26T09:26:14;14.90;58.90
25732;DHT22;13585;50.864;4.406;2023-01-26T09:28:40;14.90;59.00
25732;DHT22;13585;50.864;4.406;2023-01-26T09:31:10;14.90;58.90
25732;DHT22;13585;50.864;4.406;2023-01-26T09:33:36;14.90;59.00
25732;DHT22;13585;50.864;4.406;2023-01-26T09:36:06;14.90;58.90
25732;DHT22;13585;50.864;4.406;2023-01-26T09:38:33;14.90;58.90
25732;DHT22;13585;50.864;4.406;2023-01-26T09:46:26;14.90;58.80
25732;DHT22;13585;50.864;4.406;2023-01-26T09:57:00;14.90;58.80
25732;DHT22;13585;50.864;4.406;2023-01-26T10:04:52;14.80;58.70
25732;DHT22;13585;50.864;4.406;2023-01-26T10:07:20;14.90;58.70
25732;DHT22;13585;50.864;4.406;2023-01-26T10:09:48;14.90;58.70
25732;DHT22;13585;50.864;4.406;2023-01-26T10:15:18;14.80;58.60
25732;DHT22;13585;50.864;4.406;2023-01-26T10:17:39;14.80;58.60
25732;DHT22;13585;50.864;4.406;2023-01-26T10:20:29;14.80;58.50
25732;DHT22;13585;50.864;4.406;2023-01-26T10:23:04;14.80;58.60
25732;DHT22;13585;50.864;4.406;2023-01-26T10:25:36;14.80;58.50
25732;DHT22;13585;50.864;4.406;2023-01-26T10:28:10;14.80;58.50
25732;DHT22;13585;50.864;4.406;2023-01-26T10:30:38;14.80;58.50
25732;DHT22;13585;50.864;4.406;2023-01-26T10:33:13;14.80;58.40
25732;DHT22;13585;50.864;4.406;2023-01-26T10:35:41;14.80;58.50
25732;DHT22;13585;50.864;4.406;2023-01-26T10:46:33;14.70;58.40
25732;DHT22;13585;50.864;4.406;2023-01-26T10:49:17;14.70;58.40
25732;DHT22;13585;50.864;4.406;2023-01-26T10:52:03;14.70;58.40
25732;DHT22;13585;50.864;4.406;2023-01-26T10:54:29;14.80;58.40
25732;DHT22;13585;50.864;4.406;2023-01-26T10:56:56;14.70;58.40
25732;DHT22;13585;50.864;4.406;2023-01-26T11:04:36;14.70;58.30
25732;DHT22;13585;50.864;4.406;2023-01-26T11:07:24;14.80;58.40
25732;DHT22;13585;50.864;4.406;2023-01-26T11:09:51;14.70;58.40
25732;DHT22;13585;50.864;4.406;2023-01-26T11:12:18;14.70;58.30
25732;DHT22;13585;50.864;4.406;2023-01-26T11:15:16;14.70;58.30
25732;DHT22;13585;50.864;4.406;2023-01-26T11:18:04;14.70;58.40
25732;DHT22;13585;50.864;4.406;2023-01-26T11:30:12;14.70;58.30
25732;DHT22;13585;50.864;4.406;2023-01-26T11:32:51;14.70;58.30
25732;DHT22;13585;50.864;4.406;2023-01-26T11:38:34;14.60;58.30
25732;DHT22;13585;50.864;4.406;2023-01-26T11:44:32;14.60;58.30
25732;DHT22;13585;50.864;4.406;2023-01-26T11:47:19;14.70;58.30
25732;DHT22;13585;50.864;4.406;2023-01-26T11:50:15;14.60;58.20
25732;DHT22;13585;50.864;4.406;2023-01-26T11:52:55;14.60;58.30
25732;DHT22;13585;50.864;4.406;2023-01-26T11:58:24;14.60;58.20
25732;DHT22;13585;50.864;4.406;2023-01-26T12:01:05;14.70;58.30
25732;DHT22;13585;50.864;4.406;2023-01-26T12:06:06;14.70;58.30
25732;DHT22;13585;50.864;4.406;2023-01-26T12:08:42;14.70;58.30
25732;DHT22;13585;50.864;4.406;2023-01-26T12:11:26;14.60;58.40
25732;DHT22;13585;50.864;4.406;2023-01-26T12:14:17;14.60;58.40
25732;DHT22;13585;50.864;4.406;2023-01-26T12:22:45;14.60;58.60
25732;DHT22;13585;50.864;4.406;2023-01-26T12:27:55;14.60;58.60
25732;DHT22;13585;50.864;4.406;2023-01-26T12:33:00;14.70;59.00
25732;DHT22;13585;50.864;4.406;2023-01-26T12:38:14;14.60;59.20
25732;DHT22;13585;50.864;4.406;2023-01-26T12:41:09;14.70;59.30
25732;DHT22;13585;50.864;4.406;2023-01-26T12:46:24;14.70;59.30
25732;DHT22;13585;50.864;4.406;2023-01-26T12:49:00;14.60;59.30
25732;DHT22;13585;50.864;4.406;2023-01-26T12:51:36;14.60;59.40
25732;DHT22;13585;50.864;4.406;2023-01-26T12:54:13;14.70;59.40
25732;DHT22;13585;50.864;4.406;2023-01-26T12:56:46;14.60;59.40
25732;DHT22;13585;50.864;4.406;2023-01-26T12:59:22;14.70;59.50
25732;DHT22;13585;50.864;4.406;2023-01-26T13:01:49;14.60;59.50
25732;DHT22;13585;50.864;4.406;2023-01-26T13:04:15;14.70;59.60
25732;DHT22;13585;50.864;4.406;2023-01-26T13:06:42;14.70;59.70
25732;DHT22;13585;50.864;4.406;2023-01-26T13:09:20;14.70;59.80
25732;DHT22;13585;50.864;4.406;2023-01-26T13:11:54;14.60;59.80
25732;DHT22;13585;50.864;4.406;2023-01-26T13:24:57;14.60;60.10
25732;DHT22;13585;50.864;4.406;2023-01-26T13:27:27;14.60;60.00
25732;DHT22;13585;50.864;4.406;2023-01-26T13:29:53;14.70;60.10
25732;DHT22;13585;50.864;4.406;2023-01-26T13:34:56;14.70;60.20
25732;DHT22;13585;50.864;4.406;2023-01-26T13:40:12;14.60;60.20
25732;DHT22;13585;50.864;4.406;2023-01-26T13:42:59;14.70;60.20
25732;DHT22;13585;50.864;4.406;2023-01-26T13:48:48;14.70;60.30
25732;DHT22;13585;50.864;4.406;2023-01-26T13:51:17;14.70;60.10
25732;DHT22;13585;50.864;4.406;2023-01-26T13:56:34;14.70;60.10
25732;DHT22;13585;50.864;4.406;2023-01-26T14:01:54;14.60;60.10
25732;DHT22;13585;50.864;4.406;2023-01-26T14:04:28;14.60;60.10
25732;DHT22;13585;50.864;4.406;2023-01-26T14:07:03;14.60;60.10
25732;DHT22;13585;50.864;4.406;2023-01-26T14:09:32;14.70;60.10
25732;DHT22;13585;50.864;4.406;2023-01-26T14:12:05;14.60;60.10
25732;DHT22;13585;50.864;4.406;2023-01-26T14:14:34;14.60;60.10
25732;DHT22;13585;50.864;4.406;2023-01-26T14:17:06;14.70;60.00
25732;DHT22;13585;50.864;4.406;2023-01-26T14:19:38;14.60;59.90
25732;DHT22;13585;50.864;4.406;2023-01-26T14:22:10;14.60;60.00
25732;DHT22;13585;50.864;4.406;2023-01-26T14:24:37;14.60;60.10
25732;DHT22;13585;50.864;4.406;2023-01-26T14:27:04;14.60;60.00
25732;DHT22;13585;50.864;4.406;2023-01-26T14:29:36;14.70;60.10
25732;DHT22;13585;50.864;4.406;2023-01-26T14:32:03;14.60;60.10
25732;DHT22;13585;50.864;4.406;2023-01-26T14:34:30;14.60;60.00
25732;DHT22;13585;50.864;4.406;2023-01-26T14:37:16;14.60;60.00
25732;DHT22;13585;50.864;4.406;2023-01-26T14:39:43;14.60;60.10
25732;DHT22;13585;50.864;4.406;2023-01-26T14:42:20;14.60;60.00
25732;DHT22;13585;50.864;4.406;2023-01-26T14:44:46;14.60;60.00
25732;DHT22;13585;50.864;4.406;2023-01-26T14:47:37;14.70;60.00
25732;DHT22;13585;50.864;4.406;2023-01-26T14:50:25;14.60;60.00
25732;DHT22;13585;50.864;4.406;2023-01-26T14:52:52;14.60;60.00
25732;DHT22;13585;50.864;4.406;2023-01-26T14:55:25;14.60;59.90
25732;DHT22;13585;50.864;4.406;2023-01-26T14:57:51;14.60;60.00
25732;DHT22;13585;50.864;4.406;2023-01-26T15:00:26;14.60;59.90
25732;DHT22;13585;50.864;4.406;2023-01-26T15:02:54;14.60;60.00
25732;DHT22;13585;50.864;4.406;2023-01-26T15:05:23;14.60;59.90
25732;DHT22;13585;50.864;4.406;2023-01-26T15:08:19;14.60;60.00
25732;DHT22;13585;50.864;4.406;2023-01-26T15:10:58;14.60;60.00
25732;DHT22;13585;50.864;4.406;2023-01-26T15:13:46;14.60;59.90
25732;DHT22;13585;50.864;4.406;2023-01-26T15:16:18;14.60;59.90
25732;DHT22;13585;50.864;4.406;2023-01-26T15:18:44;14.60;60.00
25732;DHT22;13585;50.864;4.406;2023-01-26T15:21:18;14.60;59.90
25732;DHT22;13585;50.864;4.406;2023-01-26T15:23:49;14.60;60.00
25732;DHT22;13585;50.864;4.406;2023-01-26T15:26:31;14.60;60.10
25732;DHT22;13585;50.864;4.406;2023-01-26T15:28:59;14.60;60.00
25732;DHT22;13585;50.864;4.406;2023-01-26T15:31:39;14.60;60.00
25732;DHT22;13585;50.864;4.406;2023-01-26T15:34:35;14.60;60.00
25732;DHT22;13585;50.864;4.406;2023-01-26T15:37:26;14.60;60.00
25732;DHT22;13585;50.864;4.406;2023-01-26T15:39:48;14.60;59.90
25732;DHT22;13585;50.864;4.406;2023-01-26T15:42:19;14.60;59.90
25732;DHT22;13585;50.864;4.406;2023-01-26T15:44:45;14.60;60.00
25732;DHT22;13585;50.864;4.406;2023-01-26T15:47:11;14.50;59.90
25732;DHT22;13585;50.864;4.406;2023-01-26T15:49:38;14.60;59.90
25732;DHT22;13585;50.864;4.406;2023-01-26T15:52:30;14.60;59.90
25732;DHT22;13585;50.864;4.406;2023-01-26T15:54:56;14.60;60.00
25732;DHT22;13585;50.864;4.406;2023-01-26T15:57:21;14.60;59.90
25732;DHT22;13585;50.864;4.406;2023-01-26T15:59:47;14.60;59.90
25732;DHT22;13585;50.864;4.406;2023-01-26T16:02:18;14.60;59.90
25732;DHT22;13585;50.864;4.406;2023-01-26T16:04:45;14.60;59.90
25732;DHT22;13585;50.864;4.406;2023-01-26T16:07:16;14.60;59.90
25732;DHT22;13585;50.864;4.406;2023-01-26T16:09:42;14.60;59.90
25732;DHT22;13585;50.864;4.406;2023-01-26T16:12:16;14.60;59.80
25732;DHT22;13585;50.864;4.406;2023-01-26T16:14:42;14.60;59.80
25732;DHT22;13585;50.864;4.406;2023-01-26T16:17:15;14.60;59.80
25732;DHT22;13585;50.864;4.406;2023-01-26T16:19:42;14.60;59.90
25732;DHT22;13585;50.864;4.406;2023-01-26T16:22:09;14.60;59.80
25732;DHT22;13585;50.864;4.406;2023-01-26T16:24:36;14.60;59.80
25732;DHT22;13585;50.864;4.406;2023-01-26T16:27:02;14.60;59.80
25732;DHT22;13585;50.864;4.406;2023-01-26T16:29:28;14.60;59.80
25732;DHT22;13585;50.864;4.406;2023-01-26T16:31:54;14.50;59.80
25732;DHT22;13585;50.864;4.406;2023-01-26T16:34:19;14.60;59.80
25732;DHT22;13585;50.864;4.406;2023-01-26T16:36:45;14.60;59.80
25732;DHT22;13585;50.864;4.406;2023-01-26T16:39:11;14.60;59.80
25732;DHT22;13585;50.864;4.406;2023-01-26T16:41:36;14.50;59.80
25732;DHT22;13585;50.864;4.406;2023-01-26T16:44:02;14.60;59.70
25732;DHT22;13585;50.864;4.406;2023-01-26T16:46:29;14.60;59.70
25732;DHT22;13585;50.864;4.406;2023-01-26T16:48:55;14.60;59.80
25732;DHT22;13585;50.864;4.406;2023-01-26T16:51:26;14.60;59.70
25732;DHT22;13585;50.864;4.406;2023-01-26T16:53:52;14.60;59.80
25732;DHT22;13585;50.864;4.406;2023-01-26T16:56:19;14.60;59.70
25732;DHT22;13585;50.864;4.406;2023-01-26T16:58:45;14.60;59.80
25732;DHT22;13585;50.864;4.406;2023-01-26T17:03:42;14.60;59.80
25732;DHT22;13585;50.864;4.406;2023-01-26T17:06:07;14.60;59.80
25732;DHT22;13585;50.864;4.406;2023-01-26T17:08:33;14.60;59.90
25732;DHT22;13585;50.864;4.406;2023-01-26T17:10:59;14.70;59.90
25732;DHT22;13585;50.864;4.406;2023-01-26T17:13:24;14.60;59.90
25732;DHT22;13585;50.864;4.406;2023-01-26T17:15:50;14.70;60.00
25732;DHT22;13585;50.864;4.406;2023-01-26T17:18:15;14.70;60.00
25732;DHT22;13585;50.864;4.406;2023-01-26T17:20:41;14.70;60.00
25732;DHT22;13585;50.864;4.406;2023-01-26T17:23:07;14.70;60.00
25732;DHT22;13585;50.864;4.406;2023-01-26T17:25:33;14.70;60.00
25732;DHT22;13585;50.864;4.406;2023-01-26T17:27:59;14.70;60.00
25732;DHT22;13585;50.864;4.406;2023-01-26T17:30:24;14.70;60.00
25732;DHT22;13585;50.864;4.406;2023-01-26T17:32:50;14.70;60.10
25732;DHT22;13585;50.864;4.406;2023-01-26T17:35:16;14.80;60.20
25732;DHT22;13585;50.864;4.406;2023-01-26T17:37:41;14.80;60.20
25732;DHT22;13585;50.864;4.406;2023-01-26T17:40:08;14.80;60.20
25732;DHT22;13585;50.864;4.406;2023-01-26T17:42:34;14.70;60.20